Time;durP1;ratioP1;P1;durP2;ratioP2;P2;SDS_P1;SDS_P2;PMS_P1;PMS_P2;Temp;Humidity;BMP_temperature;BMP_pressure;BME280_temperature;BME280_humidity;BME280_pressure;Samples;Min_cycle;Max_cycle;Signal;HPM_P1;HPM_P2
2023/05/22 00:03:49;;;;;;;7.37;5.37;;;;;;;;;;12732919;23;20409;-86
2023/05/22 00:08:53;;;;;;;6.95;5.60;;;;;;;;;;12728707;23;20374;-87
2023/05/22 00:13:55;;;;;;;8.07;5.72;;;;;;;;;;12728387;23;20464;-86
2023/05/22 00:18:59;;;;;;;7.17;5.63;;;;;;;;;;12748918;23;20436;-86
2023/05/22 00:24:04;;;;;;;6.17;5.50;;;;;;;;;;12725698;23;20929;-86
2023/05/22 00:29:06;;;;;;;6.95;5.50;;;;;;;;;;12725943;23;20833;-87
2023/05/22 00:34:09;;;;;;;6.13;4.73;;;;;;;;;;12748163;23;20381;-86
2023/05/22 00:39:13;;;;;;;6.50;4.82;;;;;;;;;;12730414;23;20908;-86
2023/05/22 00:44:15;;;;;;;6.90;4.50;;;;;;;;;;12731553;23;20369;-87
2023/05/22 00:49:18;;;;;;;7.43;4.77;;;;;;;;;;12731608;23;20365;-86
2023/05/22 00:54:22;;;;;;;6.22;4.72;;;;;;;;;;12731909;23;20746;-86
2023/05/22 00:59:24;;;;;;;6.03;4.40;;;;;;;;;;12752596;23;20432;-87
2023/05/22 01:04:27;;;;;;;6.82;4.80;;;;;;;;;;12733079;23;20377;-86
2023/05/22 01:09:31;;;;;;;6.40;5.10;;;;;;;;;;12736033;23;20373;-87
2023/05/22 01:14:40;;;;;;;5.47;4.68;;;;;;;;;;12731176;23;20468;-87
2023/05/22 01:20:06;;;;;;;5.93;5.15;;;;;;;;;;12751777;23;20432;-86
2023/05/22 01:25:46;;;;;;;5.73;4.70;;;;;;;;;;12730480;23;20370;-86
2023/05/22 01:30:57;;;;;;;7.03;4.90;;;;;;;;;;12731122;23;20432;-86
2023/05/22 01:36:01;;;;;;;5.03;4.53;;;;;;;;;;12730966;23;20476;-87
2023/05/22 01:41:04;;;;;;;6.25;5.00;;;;;;;;;;12750855;23;20409;-86
2023/05/22 01:46:08;;;;;;;6.13;5.18;;;;;;;;;;12730827;23;20381;-86
2023/05/22 01:51:18;;;;;;;5.28;4.78;;;;;;;;;;12729293;23;20369;-87
2023/05/22 01:56:29;;;;;;;5.72;4.80;;;;;;;;;;12730017;23;20381;-86
2023/05/22 02:01:36;;;;;;;6.75;5.40;;;;;;;;;;12731259;23;20373;-86
2023/05/22 02:06:39;;;;;;;5.18;4.68;;;;;;;;;;12729803;23;20768;-87
2023/05/22 02:11:42;;;;;;;7.97;5.15;;;;;;;;;;12733683;23;20377;-86
2023/05/22 02:16:47;;;;;;;5.88;5.28;;;;;;;;;;12750783;23;20922;-86
2023/05/22 02:21:50;;;;;;;7.47;5.20;;;;;;;;;;12750520;23;20400;-86
2023/05/22 02:26:52;;;;;;;5.72;5.13;;;;;;;;;;12750862;23;20430;-86
2023/05/22 02:31:56;;;;;;;6.00;5.40;;;;;;;;;;12729690;23;20413;-86
2023/05/22 02:36:58;;;;;;;7.07;5.60;;;;;;;;;;12729526;23;20393;-87
2023/05/22 02:42:01;;;;;;;6.63;5.63;;;;;;;;;;12729894;23;20406;-87
2023/05/22 02:47:06;;;;;;;6.60;5.53;;;;;;;;;;12728552;23;20428;-86
2023/05/22 02:52:08;;;;;;;7.20;6.03;;;;;;;;;;12730131;23;20436;-86
2023/05/22 02:57:11;;;;;;;7.27;5.30;;;;;;;;;;12729806;23;20385;-86
2023/05/22 03:02:16;;;;;;;7.97;5.63;;;;;;;;;;12749203;23;20432;-87
2023/05/22 03:07:19;;;;;;;7.40;5.50;;;;;;;;;;12729904;23;20779;-86
2023/05/22 03:12:21;;;;;;;6.75;5.68;;;;;;;;;;12728879;23;20369;-86
2023/05/22 03:17:27;;;;;;;6.97;5.63;;;;;;;;;;12733760;23;20441;-86
2023/05/22 03:22:29;;;;;;;7.45;5.30;;;;;;;;;;12728339;23;20369;-86
2023/05/22 03:27:32;;;;;;;7.07;5.43;;;;;;;;;;12728754;23;20381;-87
2023/05/22 03:32:36;;;;;;;9.00;5.63;;;;;;;;;;12728835;23;20448;-86
2023/05/22 03:37:39;;;;;;;6.57;5.53;;;;;;;;;;12728414;23;20389;-86
2023/05/22 03:42:41;;;;;;;6.55;5.43;;;;;;;;;;12728877;23;20380;-86
2023/05/22 03:47:45;;;;;;;8.37;5.13;;;;;;;;;;12749412;23;20421;-86
2023/05/22 03:52:48;;;;;;;8.57;5.32;;;;;;;;;;12748567;23;20373;-87
2023/05/22 03:57:50;;;;;;;6.90;5.30;;;;;;;;;;12728143;23;20385;-86
2023/05/22 04:02:57;;;;;;;7.55;5.40;;;;;;;;;;12729386;23;20412;-86
2023/05/22 04:07:59;;;;;;;6.68;5.40;;;;;;;;;;12731165;23;20896;-86
2023/05/22 04:13:02;;;;;;;5.97;5.37;;;;;;;;;;12732927;23;20373;-86
2023/05/22 04:18:05;;;;;;;7.05;5.40;;;;;;;;;;12734899;23;20392;-86
2023/05/22 04:23:08;;;;;;;6.28;5.40;;;;;;;;;;12735857;23;20435;-86
2023/05/22 04:28:11;;;;;;;6.90;5.40;;;;;;;;;;12731903;23;20365;-87
2023/05/22 04:33:16;;;;;;;6.90;5.25;;;;;;;;;;12732138;23;20429;-87
2023/05/22 04:38:19;;;;;;;5.87;5.03;;;;;;;;;;12751810;23;20420;-86
2023/05/22 04:43:22;;;;;;;6.70;5.57;;;;;;;;;;12731665;23;20695;-86
2023/05/22 04:48:26;;;;;;;6.80;5.75;;;;;;;;;;12732094;23;20370;-85
2023/05/22 04:53:29;;;;;;;6.38;5.43;;;;;;;;;;12752291;23;20901;-86
2023/05/22 04:58:31;;;;;;;6.57;5.30;;;;;;;;;;12751283;23;20952;-86
2023/05/22 05:03:35;;;;;;;5.80;5.20;;;;;;;;;;12728343;23;20401;-86
2023/05/22 05:08:38;;;;;;;7.65;5.40;;;;;;;;;;12727068;23;20432;-84
2023/05/22 05:13:41;;;;;;;6.15;5.20;;;;;;;;;;12750563;23;20838;-85
2023/05/22 05:18:45;;;;;;;6.13;4.87;;;;;;;;;;12749360;23;20385;-84
2023/05/22 05:23:48;;;;;;;5.97;4.80;;;;;;;;;;12730257;23;20508;-85
2023/05/22 05:28:50;;;;;;;7.45;5.00;;;;;;;;;;12731321;23;20833;-85
2023/05/22 05:33:56;;;;;;;6.72;5.10;;;;;;;;;;12749249;23;20401;-85
2023/05/22 05:38:59;;;;;;;6.13;5.07;;;;;;;;;;12729208;23;20385;-86
2023/05/22 05:44:01;;;;;;;5.93;4.72;;;;;;;;;;12728749;23;20921;-85
2023/05/22 05:49:09;;;;;;;6.40;4.70;;;;;;;;;;12727306;23;20409;-86
2023/05/22 05:54:12;;;;;;;6.27;4.63;;;;;;;;;;12727249;23;20816;-85
2023/05/22 05:59:14;;;;;;;8.80;5.07;;;;;;;;;;12728570;23;20857;-87
2023/05/22 06:04:18;;;;;;;6.00;4.63;;;;;;;;;;12730032;23;20374;-86
2023/05/22 06:09:21;;;;;;;6.80;4.75;;;;;;;;;;12730262;23;20369;-86
2023/05/22 06:14:23;;;;;;;5.25;4.40;;;;;;;;;;12749822;23;20471;-86
2023/05/22 06:19:27;;;;;;;8.43;4.57;;;;;;;;;;12717408;23;20393;-86
2023/05/22 06:24:30;;;;;;;4.87;4.23;;;;;;;;;;12750147;23;20846;-86
2023/05/22 06:29:33;;;;;;;5.63;4.53;;;;;;;;;;12732393;23;20366;-86
2023/05/22 06:34:36;;;;;;;5.40;4.60;;;;;;;;;;12728900;23;20370;-86
2023/05/22 06:39:39;;;;;;;6.57;4.80;;;;;;;;;;12728128;23;20722;-86
2023/05/22 06:44:41;;;;;;;6.40;4.60;;;;;;;;;;12728173;23;20377;-86
2023/05/22 06:49:45;;;;;;;5.75;4.90;;;;;;;;;;12729095;23;20362;-86
2023/05/22 06:54:47;;;;;;;6.27;4.97;;;;;;;;;;12728261;23;20750;-86
2023/05/22 06:59:50;;;;;;;6.60;4.63;;;;;;;;;;12729354;23;20388;-86
2023/05/22 07:04:54;;;;;;;5.57;4.70;;;;;;;;;;12729348;23;20830;-86
2023/05/22 07:09:56;;;;;;;5.57;4.40;;;;;;;;;;12729141;23;20490;-85
2023/05/22 07:14:59;;;;;;;6.32;4.88;;;;;;;;;;12728110;23;20365;-85
2023/05/22 07:20:04;;;;;;;7.53;5.10;;;;;;;;;;12749313;23;20432;-86
2023/05/22 07:25:07;;;;;;;5.30;4.80;;;;;;;;;;12749540;23;20373;-86
2023/05/22 07:30:10;;;;;;;6.25;5.03;;;;;;;;;;12728009;23;20403;-85
2023/05/22 07:35:14;;;;;;;4.95;4.38;;;;;;;;;;12729931;23;20370;-86
2023/05/22 07:40:16;;;;;;;7.47;5.28;;;;;;;;;;12676159;23;20470;-87
2023/05/22 07:45:19;;;;;;;6.63;4.97;;;;;;;;;;12671811;23;20367;-86
2023/05/22 07:50:25;;;;;;;5.75;4.82;;;;;;;;;;12671495;23;20429;-86
2023/05/22 07:55:27;;;;;;;8.23;5.30;;;;;;;;;;12670525;23;20375;-86
2023/05/22 08:00:30;;;;;;;5.13;4.63;;;;;;;;;;12671789;23;20500;-86
2023/05/22 08:05:33;;;;;;;6.13;4.63;;;;;;;;;;12671769;23;20383;-86
2023/05/22 08:10:36;;;;;;;7.77;4.80;;;;;;;;;;12670638;23;20414;-87
2023/05/22 08:15:39;;;;;;;6.35;4.70;;;;;;;;;;12669986;23;20367;-86
2023/05/22 08:20:42;;;;;;;7.97;5.07;;;;;;;;;;12670789;23;20418;-86
2023/05/22 08:25:45;;;;;;;5.68;5.07;;;;;;;;;;12689396;23;20438;-86
2023/05/22 08:30:47;;;;;;;5.97;4.82;;;;;;;;;;12671413;23;20375;-86
2023/05/22 08:35:51;;;;;;;6.05;5.10;;;;;;;;;;12670856;23;20375;-86
2023/05/22 08:40:54;;;;;;;6.15;5.03;;;;;;;;;;12679962;23;20485;-86
2023/05/22 08:46:00;;;;;;;6.73;4.70;;;;;;;;;;12691228;23;20387;-86
2023/05/22 08:51:06;;;;;;;6.05;5.10;;;;;;;;;;12690458;23;20371;-86
2023/05/22 08:56:09;;;;;;;5.80;4.87;;;;;;;;;;12684022;23;20383;-86
2023/05/22 09:01:11;;;;;;;8.13;5.17;;;;;;;;;;12689954;23;20478;-86
2023/05/22 09:06:16;;;;;;;7.45;5.35;;;;;;;;;;12669952;23;20415;-86
2023/05/22 09:11:18;;;;;;;5.72;4.75;;;;;;;;;;12669783;23;20379;-86
2023/05/22 09:16:20;;;;;;;6.63;5.10;;;;;;;;;;12670271;23;20371;-87
2023/05/22 09:21:28;;;;;;;7.18;5.03;;;;;;;;;;12688540;23;20961;-86
2023/05/22 09:26:31;;;;;;;5.63;4.80;;;;;;;;;;12688867;23;20438;-86
2023/05/22 09:31:42;;;;;;;6.45;4.88;;;;;;;;;;12667421;23;20368;-86
2023/05/22 09:36:48;;;;;;;5.50;4.90;;;;;;;;;;12668092;23;20390;-86
2023/05/22 09:41:51;;;;;;;6.15;4.90;;;;;;;;;;12690355;23;20430;-87
2023/05/22 09:46:55;;;;;;;6.40;4.78;;;;;;;;;;12675348;23;20709;-87
2023/05/22 09:51:59;;;;;;;6.67;5.10;;;;;;;;;;12662866;23;20379;-87
2023/05/22 09:57:06;;;;;;;5.32;4.57;;;;;;;;;;12669232;23;20454;-86
2023/05/22 10:02:09;;;;;;;7.73;5.20;;;;;;;;;;12668585;23;20363;-87
2023/05/22 10:07:14;;;;;;;6.10;5.38;;;;;;;;;;12687830;23;20375;-87
2023/05/22 10:12:19;;;;;;;6.75;4.80;;;;;;;;;;12665855;23;20371;-86
2023/05/22 10:17:23;;;;;;;6.00;4.85;;;;;;;;;;12669387;23;20756;-87
2023/05/22 10:22:29;;;;;;;6.47;5.07;;;;;;;;;;12667732;23;20371;-87
2023/05/22 10:27:32;;;;;;;7.67;5.50;;;;;;;;;;12667651;23;20418;-86
2023/05/22 10:32:41;;;;;;;5.07;4.57;;;;;;;;;;12666581;23;20375;-87
2023/05/22 10:37:49;;;;;;;6.00;4.80;;;;;;;;;;12696932;23;20437;-87
2023/05/22 10:42:51;;;;;;;7.17;4.83;;;;;;;;;;12728232;23;20456;-86
2023/05/22 10:48:03;;;;;;;6.47;4.83;;;;;;;;;;12726860;23;20842;-86
2023/05/22 10:53:26;;;;;;;7.45;5.40;;;;;;;;;;12727393;23;20373;-86
2023/05/22 10:58:30;;;;;;;7.30;5.00;;;;;;;;;;12747936;23;20381;-86
2023/05/22 11:03:51;;;;;;;6.18;4.80;;;;;;;;;;12727282;23;20369;-87
2023/05/22 11:08:56;;;;;;;6.25;5.10;;;;;;;;;;12729815;23;20432;-87
2023/05/22 11:14:03;;;;;;;5.40;4.65;;;;;;;;;;12728528;23;20373;-87
2023/05/22 11:19:07;;;;;;;6.47;4.68;;;;;;;;;;12727545;23;20444;-86
2023/05/22 11:24:12;;;;;;;8.32;5.28;;;;;;;;;;12727479;23;20451;-86
2023/05/22 11:29:15;;;;;;;6.00;5.03;;;;;;;;;;12722004;23;20764;-86
2023/05/22 11:34:18;;;;;;;7.90;5.30;;;;;;;;;;12718180;23;20389;-86
2023/05/22 11:39:23;;;;;;;7.00;5.22;;;;;;;;;;12691443;23;20385;-86
2023/05/22 11:44:28;;;;;;;5.97;4.63;;;;;;;;;;12726198;23;20389;-87
2023/05/22 11:49:30;;;;;;;7.70;4.68;;;;;;;;;;12716186;23;20377;-86
2023/05/22 11:54:34;;;;;;;6.20;4.70;;;;;;;;;;12717033;23;20416;-85
2023/05/22 11:59:37;;;;;;;5.95;4.15;;;;;;;;;;12722246;23;20468;-85
2023/05/22 12:04:39;;;;;;;6.63;4.70;;;;;;;;;;12716493;23;20850;-85
2023/05/22 12:09:43;;;;;;;6.30;4.93;;;;;;;;;;12728829;23;20413;-86
2023/05/22 12:14:46;;;;;;;6.25;5.30;;;;;;;;;;12717354;23;20452;-85
2023/05/22 12:19:48;;;;;;;5.57;4.90;;;;;;;;;;12718266;23;20854;-86
2023/05/22 12:24:54;;;;;;;7.72;5.20;;;;;;;;;;12736214;23;20937;-84
2023/05/22 12:29:57;;;;;;;7.85;5.20;;;;;;;;;;12721867;23;20385;-85
2023/05/22 12:34:59;;;;;;;11.45;5.38;;;;;;;;;;12723774;23;20428;-85
2023/05/22 12:40:04;;;;;;;7.53;5.03;;;;;;;;;;12724388;23;20446;-85
2023/05/22 12:45:08;;;;;;;5.80;4.53;;;;;;;;;;12741890;23;20436;-86
2023/05/22 12:50:11;;;;;;;6.07;4.47;;;;;;;;;;12750297;23;20373;-86
2023/05/22 12:55:14;;;;;;;7.27;4.80;;;;;;;;;;12729747;23;20369;-86
2023/05/22 13:00:17;;;;;;;5.00;4.50;;;;;;;;;;12750955;23;20388;-86
2023/05/22 13:05:20;;;;;;;6.73;5.03;;;;;;;;;;12729143;23;20374;-86
2023/05/22 13:10:24;;;;;;;6.55;4.90;;;;;;;;;;12727891;23;20369;-86
2023/05/22 13:15:28;;;;;;;5.60;4.65;;;;;;;;;;12723957;23;20699;-86
2023/05/22 13:20:30;;;;;;;5.75;4.55;;;;;;;;;;12745621;23;20377;-86
2023/05/22 13:25:34;;;;;;;8.20;4.78;;;;;;;;;;12725099;23;20428;-86
2023/05/22 13:30:37;;;;;;;6.38;4.55;;;;;;;;;;12786670;23;20372;-86
2023/05/22 13:35:39;;;;;;;9.15;5.00;;;;;;;;;;12788642;23;20368;-85
2023/05/22 13:40:43;;;;;;;5.57;4.65;;;;;;;;;;12783773;23;20391;-86
2023/05/22 13:45:45;;;;;;;5.57;4.30;;;;;;;;;;12789363;23;20411;-86
2023/05/22 13:50:47;;;;;;;6.55;4.32;;;;;;;;;;12789755;23;20368;-86
2023/05/22 13:55:51;;;;;;;6.22;4.45;;;;;;;;;;12787997;23;20820;-86
2023/05/22 14:00:53;;;;;;;5.82;4.40;;;;;;;;;;12789571;23;20446;-86
2023/05/22 14:05:55;;;;;;;6.45;5.18;;;;;;;;;;12789153;23;20732;-87
2023/05/22 14:10:59;;;;;;;6.97;4.80;;;;;;;;;;12808186;23;20407;-85
2023/05/22 14:16:02;;;;;;;5.80;4.77;;;;;;;;;;12783217;23;20411;-85
2023/05/22 14:21:05;;;;;;;5.40;4.80;;;;;;;;;;12782674;23;20446;-86
2023/05/22 14:26:08;;;;;;;6.53;4.93;;;;;;;;;;12794258;23;20397;-86
2023/05/22 14:31:11;;;;;;;5.95;5.05;;;;;;;;;;12845444;23;20397;-85
2023/05/22 14:36:13;;;;;;;5.55;4.72;;;;;;;;;;12847640;23;20421;-84
2023/05/22 14:41:17;;;;;;;6.97;4.95;;;;;;;;;;12847567;23;20469;-84
2023/05/22 14:46:19;;;;;;;6.40;4.60;;;;;;;;;;12843246;23;20644;-85
2023/05/22 14:51:22;;;;;;;6.57;4.65;;;;;;;;;;12844710;23;20530;-85
2023/05/22 14:56:27;;;;;;;5.93;4.57;;;;;;;;;;12847102;23;20432;-85
2023/05/22 15:01:29;;;;;;;6.70;4.80;;;;;;;;;;12848499;23;20386;-85
2023/05/22 15:06:32;;;;;;;7.50;4.90;;;;;;;;;;12848170;23;20909;-86
2023/05/22 15:11:36;;;;;;;6.00;4.33;;;;;;;;;;12845217;23;20420;-84
2023/05/22 15:16:38;;;;;;;7.32;4.90;;;;;;;;;;12842881;23;20392;-85
2023/05/22 15:21:41;;;;;;;6.30;4.43;;;;;;;;;;12845376;23;20460;-86
2023/05/22 15:26:45;;;;;;;6.40;4.68;;;;;;;;;;12848489;23;20476;-84
2023/05/22 15:31:47;;;;;;;7.60;4.70;;;;;;;;;;12842499;23;20370;-85
2023/05/22 15:36:49;;;;;;;6.75;4.75;;;;;;;;;;12845186;23;20392;-85
2023/05/22 15:41:53;;;;;;;6.20;4.57;;;;;;;;;;12841958;23;20471;-85
2023/05/22 15:46:57;;;;;;;6.07;4.93;;;;;;;;;;12842504;23;20448;-85
2023/05/22 15:51:59;;;;;;;5.78;4.82;;;;;;;;;;12850073;23;20452;-86
2023/05/22 15:57:03;;;;;;;6.88;4.90;;;;;;;;;;12844036;23;20428;-83
2023/05/22 16:02:06;;;;;;;7.35;4.55;;;;;;;;;;12838846;23;20397;-85
2023/05/22 16:07:08;;;;;;;6.50;4.82;;;;;;;;;;12845488;23;20365;-85
2023/05/22 16:12:11;;;;;;;5.95;4.25;;;;;;;;;;12843443;23;20447;-85
2023/05/22 16:17:14;;;;;;;7.30;4.30;;;;;;;;;;12848381;23;20366;-85
2023/05/22 16:22:17;;;;;;;7.27;4.40;;;;;;;;;;12845364;23;20706;-85
2023/05/22 16:27:20;;;;;;;5.73;4.60;;;;;;;;;;12846402;23;20695;-86
2023/05/22 16:32:23;;;;;;;5.82;4.32;;;;;;;;;;12848107;23;20369;-84
2023/05/22 16:37:25;;;;;;;7.38;4.15;;;;;;;;;;12848473;23;20885;-85
2023/05/22 16:42:29;;;;;;;6.95;4.70;;;;;;;;;;12847030;23;20386;-85
2023/05/22 16:47:32;;;;;;;4.90;4.20;;;;;;;;;;12846916;23;20428;-85
2023/05/22 16:52:34;;;;;;;6.83;4.60;;;;;;;;;;12849522;23;20401;-86
2023/05/22 16:57:38;;;;;;;6.03;4.75;;;;;;;;;;12846217;23;20896;-83
2023/05/22 17:02:40;;;;;;;5.93;4.68;;;;;;;;;;12845766;23;20940;-85
2023/05/22 17:07:42;;;;;;;7.82;4.53;;;;;;;;;;12840654;23;20370;-85
2023/05/22 17:12:46;;;;;;;5.60;4.40;;;;;;;;;;12841390;23;20826;-85
2023/05/22 17:17:48;;;;;;;6.63;4.47;;;;;;;;;;12841632;23;20374;-84
2023/05/22 17:22:51;;;;;;;5.27;4.53;;;;;;;;;;12838562;23;20452;-84
2023/05/22 17:27:55;;;;;;;6.07;4.80;;;;;;;;;;12831754;23;20389;-83
2023/05/22 17:32:57;;;;;;;6.18;4.88;;;;;;;;;;12838630;23;20668;-85
2023/05/22 17:38:00;;;;;;;8.23;4.80;;;;;;;;;;12840629;23;20401;-86
2023/05/22 17:43:03;;;;;;;9.82;4.50;;;;;;;;;;12840608;23;20714;-85
2023/05/22 17:48:06;;;;;;;6.03;4.70;;;;;;;;;;12843508;23;20386;-85
2023/05/22 17:53:09;;;;;;;6.32;4.93;;;;;;;;;;12843127;23;20386;-85
2023/05/22 17:58:13;;;;;;;8.43;4.70;;;;;;;;;;12843771;23;20378;-85
2023/05/22 18:03:18;;;;;;;6.60;4.90;;;;;;;;;;12838639;23;20394;-85
2023/05/22 18:08:21;;;;;;;7.15;5.07;;;;;;;;;;12838855;23;20707;-85
2023/05/22 18:13:25;;;;;;;10.67;6.27;;;;;;;;;;12842980;23;20830;-84
2023/05/22 18:18:27;;;;;;;15.00;7.10;;;;;;;;;;12841599;23;20370;-83
2023/05/22 18:23:30;;;;;;;8.88;6.20;;;;;;;;;;12834461;23;20374;-84
2023/05/22 18:28:33;;;;;;;7.28;5.95;;;;;;;;;;12837982;23;20382;-84
2023/05/22 18:33:38;;;;;;;8.07;5.67;;;;;;;;;;12840397;23;20386;-84
2023/05/22 18:38:40;;;;;;;9.35;5.95;;;;;;;;;;12841368;23;20746;-84
2023/05/22 18:43:44;;;;;;;12.95;5.80;;;;;;;;;;12838467;23;20369;-84
2023/05/22 18:48:46;;;;;;;9.60;4.87;;;;;;;;;;12839174;23;20576;-84
2023/05/22 18:53:50;;;;;;;8.97;5.07;;;;;;;;;;12836148;23;20750;-84
2023/05/22 18:58:54;;;;;;;8.60;5.10;;;;;;;;;;12839434;23;20381;-84
2023/05/22 19:03:56;;;;;;;12.00;6.20;;;;;;;;;;12855214;23;20374;-84
2023/05/22 19:08:59;;;;;;;9.15;6.00;;;;;;;;;;12837296;23;20429;-84
2023/05/22 19:14:02;;;;;;;9.77;6.30;;;;;;;;;;12837944;23;20853;-84
2023/05/22 19:19:09;;;;;;;10.27;5.40;;;;;;;;;;12841143;23;20393;-85
2023/05/22 19:24:12;;;;;;;7.43;5.72;;;;;;;;;;12837862;23;20428;-84
2023/05/22 19:29:15;;;;;;;7.22;5.80;;;;;;;;;;12840658;23;20382;-84
2023/05/22 19:34:18;;;;;;;7.70;5.70;;;;;;;;;;12838908;23;20381;-84
2023/05/22 19:39:20;;;;;;;7.50;5.68;;;;;;;;;;12838444;23;20385;-85
2023/05/22 19:44:24;;;;;;;7.25;5.72;;;;;;;;;;12835603;23;20475;-85
2023/05/22 19:49:26;;;;;;;7.33;5.77;;;;;;;;;;12835967;23;20916;-84
2023/05/22 19:54:29;;;;;;;7.15;5.63;;;;;;;;;;12837522;23;20382;-84
2023/05/22 19:59:33;;;;;;;10.43;6.00;;;;;;;;;;12856382;23;20862;-85
2023/05/22 20:04:35;;;;;;;7.90;5.82;;;;;;;;;;12842334;23;20409;-84
2023/05/22 20:09:37;;;;;;;8.85;6.32;;;;;;;;;;12861104;23;21097;-84
2023/05/22 20:14:41;;;;;;;9.50;6.23;;;;;;;;;;12839789;23;20366;-84
2023/05/22 20:19:46;;;;;;;7.63;6.57;;;;;;;;;;12838598;23;20440;-84
2023/05/22 20:24:49;;;;;;;11.02;6.63;;;;;;;;;;12840628;23;20409;-84
2023/05/22 20:29:53;;;;;;;10.97;6.73;;;;;;;;;;12839321;23;20378;-84
2023/05/22 20:34:55;;;;;;;7.77;6.20;;;;;;;;;;12838150;23;20846;-83
2023/05/22 20:40:02;;;;;;;8.93;6.68;;;;;;;;;;12839993;23;20377;-82
2023/05/22 20:45:07;;;;;;;7.80;6.30;;;;;;;;;;12841396;23;20424;-83
2023/05/22 20:50:10;;;;;;;7.40;6.60;;;;;;;;;;12841338;23;20381;-84
2023/05/22 20:55:12;;;;;;;10.85;6.95;;;;;;;;;;12845439;23;20526;-84
2023/05/22 21:00:16;;;;;;;10.30;6.60;;;;;;;;;;12843802;23;20710;-83
2023/05/22 21:05:19;;;;;;;9.40;6.88;;;;;;;;;;12842038;23;20374;-82
2023/05/22 21:10:21;;;;;;;11.32;7.15;;;;;;;;;;12862135;23;20749;-83
2023/05/22 21:15:25;;;;;;;9.97;7.43;;;;;;;;;;12842378;23;20362;-83
2023/05/22 21:20:27;;;;;;;13.00;8.63;;;;;;;;;;12842573;23;20932;-84
2023/05/22 21:25:29;;;;;;;10.87;7.83;;;;;;;;;;12844934;23;20912;-84
2023/05/22 21:30:33;;;;;;;10.13;7.32;;;;;;;;;;12842144;23;20378;-84
2023/05/22 21:35:35;;;;;;;9.97;7.50;;;;;;;;;;12842892;23;20385;-84
2023/05/22 21:40:39;;;;;;;11.40;7.80;;;;;;;;;;12841225;23;20390;-83
2023/05/22 21:45:42;;;;;;;8.73;7.65;;;;;;;;;;12844133;23;20468;-83
2023/05/22 21:50:44;;;;;;;11.15;7.80;;;;;;;;;;12843600;23;20389;-82
2023/05/22 21:55:47;;;;;;;11.35;7.80;;;;;;;;;;12842901;23;20744;-84
2023/05/22 22:00:51;;;;;;;10.77;7.80;;;;;;;;;;12842292;23;20397;-84
2023/05/22 22:05:54;;;;;;;12.02;8.27;;;;;;;;;;12847423;23;20362;-84
2023/05/22 22:10:57;;;;;;;9.43;7.83;;;;;;;;;;12852853;23;20374;-84
2023/05/22 22:16:00;;;;;;;11.53;8.57;;;;;;;;;;12854381;23;20370;-83
2023/05/22 22:21:03;;;;;;;10.77;8.20;;;;;;;;;;12853439;23;20385;-84
2023/05/22 22:26:06;;;;;;;11.05;8.50;;;;;;;;;;12852478;23;20378;-84
2023/05/22 22:31:10;;;;;;;11.63;8.30;;;;;;;;;;12852816;23;20362;-84
2023/05/22 22:36:12;;;;;;;13.20;9.70;;;;;;;;;;12851864;23;20366;-84
2023/05/22 22:41:14;;;;;;;12.07;9.77;;;;;;;;;;12850868;23;20436;-84
2023/05/22 22:46:18;;;;;;;10.80;9.40;;;;;;;;;;12850310;23;20391;-84
2023/05/22 22:51:21;;;;;;;10.25;9.15;;;;;;;;;;12852986;23;20370;-84
2023/05/22 22:56:27;;;;;;;13.48;9.27;;;;;;;;;;12851439;23;20362;-84
2023/05/22 23:01:32;;;;;;;11.90;9.33;;;;;;;;;;12873836;23;20386;-84
2023/05/22 23:06:34;;;;;;;13.68;10.25;;;;;;;;;;12853025;23;20366;-84
2023/05/22 23:11:37;;;;;;;11.60;9.90;;;;;;;;;;12852559;23;20443;-84
2023/05/22 23:16:40;;;;;;;12.55;9.82;;;;;;;;;;12853048;23;20420;-84
2023/05/22 23:21:43;;;;;;;11.10;9.90;;;;;;;;;;12855080;23;20866;-84
2023/05/22 23:26:45;;;;;;;12.20;9.75;;;;;;;;;;12852522;23;20436;-84
2023/05/22 23:31:49;;;;;;;13.47;10.70;;;;;;;;;;12852676;23;20369;-84
2023/05/22 23:36:51;;;;;;;15.43;10.53;;;;;;;;;;12776082;23;20713;-84
2023/05/22 23:41:53;;;;;;;17.05;11.60;;;;;;;;;;12606086;23;20448;-84
2023/05/22 23:46:57;;;;;;;14.57;11.47;;;;;;;;;;12609115;23;20372;-84
2023/05/22 23:52:00;;;;;;;12.73;10.23;;;;;;;;;;12607139;23;20376;-84
2023/05/22 23:57:02;;;;;;;14.93;11.70;;;;;;;;;;12607153;23;20413;-84
